createdAt,value
2024-01-05T00:01:28.874Z,51.75
2024-01-05T00:03:55.382Z,50.93
2024-01-05T00:06:21.842Z,49.86
2024-01-05T00:08:48.302Z,49.67
2024-01-05T00:11:14.618Z,48.68
2024-01-05T00:13:40.892Z,49.41
2024-01-05T00:16:07.166Z,50.00
2024-01-05T00:18:33.554Z,49.25
2024-01-05T00:20:59.913Z,49.90
2024-01-05T00:23:26.206Z,51.13
2024-01-05T00:25:52.490Z,51.52
2024-01-05T00:28:18.798Z,52.77
2024-01-05T00:30:45.105Z,54.59
2024-01-05T00:33:11.531Z,54.45
2024-01-05T00:35:37.912Z,52.46
2024-01-05T00:38:04.188Z,52.07
2024-01-05T00:40:30.456Z,52.07
2024-01-05T00:42:56.716Z,52.45
2024-01-05T00:45:23.009Z,49.95
2024-01-05T00:47:49.602Z,50.96
2024-01-05T00:50:15.981Z,51.18
2024-01-05T00:52:42.268Z,50.11
2024-01-05T00:55:08.550Z,50.82
2024-01-05T00:57:34.945Z,51.05
2024-01-05T01:00:01.272Z,51.35
2024-01-05T01:02:27.578Z,50.23
2024-01-05T01:04:53.969Z,49.52
2024-01-05T01:07:20.258Z,50.25
2024-01-05T01:09:46.550Z,51.52
2024-01-05T01:12:12.869Z,51.25
2024-01-05T01:14:39.143Z,51.01
2024-01-05T01:17:05.396Z,51.19
2024-01-05T01:19:31.798Z,51.41
2024-01-05T01:21:58.193Z,52.17
2024-01-05T01:24:24.491Z,53.00
2024-01-05T01:26:50.810Z,54.21
2024-01-05T01:29:17.111Z,55.52
2024-01-05T01:31:43.374Z,52.66
2024-01-05T01:34:09.706Z,53.19
2024-01-05T01:36:36.230Z,53.00
2024-01-05T01:39:02.605Z,51.79
2024-01-05T01:41:28.981Z,52.06
2024-01-05T01:43:55.252Z,53.27
2024-01-05T01:46:21.635Z,54.28
2024-01-05T01:48:48.194Z,52.15
2024-01-05T01:51:14.732Z,52.87
2024-01-05T01:53:41.063Z,51.54
2024-01-05T01:56:07.337Z,53.29
2024-01-05T01:58:33.625Z,53.35
2024-01-05T02:00:59.913Z,52.28
2024-01-05T02:03:26.348Z,51.61
2024-01-05T02:05:52.769Z,50.94
2024-01-05T02:08:19.129Z,50.22
2024-01-05T02:10:45.407Z,49.79
2024-01-05T02:13:11.736Z,50.65
2024-01-05T02:15:38.083Z,49.54
2024-01-05T02:18:04.566Z,49.64
2024-01-05T02:20:30.893Z,50.25
2024-01-05T02:22:57.183Z,49.02
2024-01-05T02:25:23.475Z,48.46
2024-01-05T02:27:49.803Z,50.00
2024-01-05T02:30:16.223Z,49.68
2024-01-05T02:35:40.321Z,49.16
2024-01-05T02:38:06.585Z,48.39
2024-01-05T02:40:32.893Z,48.95
2024-01-05T02:42:59.227Z,48.89
2024-01-05T02:45:25.636Z,49.09
2024-01-05T02:47:52.120Z,49.12
2024-01-05T02:50:18.482Z,48.81
2024-01-05T02:52:44.782Z,48.72
2024-01-05T02:55:11.091Z,49.41
2024-01-05T02:57:37.396Z,49.52
2024-01-05T03:00:03.805Z,49.14
2024-01-05T03:02:30.146Z,49.50
2024-01-05T03:04:56.485Z,49.74
2024-01-05T03:07:22.765Z,50.91
2024-01-05T03:09:49.042Z,51.67
2024-01-05T03:12:15.330Z,51.60
2024-01-05T03:14:41.719Z,53.60
2024-01-05T03:17:07.985Z,52.97
2024-01-05T03:19:34.386Z,52.66
2024-01-05T03:22:00.713Z,53.38
2024-01-05T03:24:27.069Z,53.26
2024-01-05T03:26:53.404Z,53.01
2024-01-05T03:29:19.701Z,54.63
2024-01-05T03:31:45.973Z,55.53
2024-01-05T03:34:12.341Z,54.11
2024-01-05T03:36:38.734Z,53.93
2024-01-05T03:39:05.069Z,54.38
2024-01-05T03:41:31.392Z,52.82
2024-01-05T03:43:57.665Z,52.11
2024-01-05T03:46:23.945Z,52.49
2024-01-05T03:48:50.350Z,51.14
2024-01-05T03:51:16.792Z,50.76
2024-01-05T03:53:43.082Z,49.93
2024-01-05T03:56:09.348Z,48.17
2024-01-05T03:58:35.609Z,47.86
2024-01-05T04:01:02.021Z,47.57
2024-01-05T04:03:28.397Z,48.84
2024-01-05T04:05:54.805Z,48.22
2024-01-05T04:08:21.156Z,49.22
2024-01-05T04:10:47.435Z,48.15
2024-01-05T04:13:33.692Z,45.91
2024-01-05T04:15:59.982Z,45.63
2024-01-05T04:18:26.369Z,45.33
2024-01-05T04:20:52.746Z,45.27
2024-01-05T04:23:19.023Z,44.95
2024-01-05T04:25:45.453Z,44.65
2024-01-05T04:28:11.727Z,45.62
2024-01-05T04:30:38.102Z,47.05
2024-01-05T04:33:04.607Z,49.11
2024-01-05T04:35:31.014Z,48.81
2024-01-05T04:37:57.308Z,50.44
2024-01-05T04:40:23.615Z,49.95
2024-01-05T04:42:49.891Z,51.73
2024-01-05T04:45:16.195Z,48.65
2024-01-05T04:47:42.547Z,47.00
2024-01-05T04:50:08.842Z,47.66
2024-01-05T04:52:35.106Z,48.33
2024-01-05T04:55:01.395Z,47.66
2024-01-05T04:57:27.776Z,45.33
2024-01-05T04:59:54.112Z,45.93
2024-01-05T05:02:20.409Z,47.29
2024-01-05T05:04:48.759Z,49.50
2024-01-05T05:07:15.305Z,48.99
2024-01-05T05:09:41.644Z,49.06
2024-01-05T05:12:07.980Z,50.48
2024-01-05T05:14:34.270Z,49.12
2024-01-05T05:17:00.555Z,48.96
2024-01-05T05:19:26.920Z,48.53
2024-01-05T05:21:53.330Z,47.38
2024-01-05T05:24:19.642Z,47.13
2024-01-05T05:26:45.934Z,48.02
2024-01-05T05:29:12.226Z,48.93
2024-01-05T05:31:38.544Z,46.92
2024-01-05T05:34:04.932Z,48.12
2024-01-05T05:36:31.275Z,47.81
2024-01-05T05:38:57.569Z,46.79
2024-01-05T05:41:23.879Z,47.85
2024-01-05T05:43:50.175Z,46.18
2024-01-05T05:46:16.461Z,46.12
2024-01-05T05:48:42.864Z,44.78
2024-01-05T05:51:09.270Z,44.88
2024-01-05T05:53:35.597Z,47.58
2024-01-05T05:56:01.873Z,47.95
2024-01-05T05:58:28.149Z,48.63
2024-01-05T06:00:54.585Z,48.51
2024-01-05T06:03:20.974Z,48.53
2024-01-05T06:05:47.359Z,48.85
2024-01-05T06:08:13.752Z,48.63
2024-01-05T06:10:40.015Z,47.81
2024-01-05T06:13:06.304Z,47.95
2024-01-05T06:15:33.443Z,47.38
2024-01-05T06:17:59.918Z,47.18
2024-01-05T06:20:26.282Z,48.12
2024-01-05T06:22:52.569Z,47.79
2024-01-05T06:25:18.841Z,48.81
2024-01-05T06:27:45.171Z,50.20
2024-01-05T06:30:11.619Z,50.95
2024-01-05T06:32:37.989Z,51.63
2024-01-05T06:35:04.286Z,49.70
2024-01-05T06:37:30.573Z,52.63
2024-01-05T06:39:56.853Z,50.04
2024-01-05T06:42:23.156Z,51.47
2024-01-05T06:44:49.589Z,48.29
2024-01-05T06:47:15.921Z,48.40
2024-01-05T06:49:42.387Z,49.03
2024-01-05T06:52:08.905Z,47.55
2024-01-05T06:54:35.224Z,47.22
2024-01-05T06:57:01.556Z,48.13
2024-01-05T06:59:27.947Z,48.07
2024-01-05T07:01:54.300Z,47.65
2024-01-05T07:04:20.584Z,49.65
2024-01-05T07:06:46.851Z,49.38
2024-01-05T07:09:13.169Z,49.42
2024-01-05T07:11:39.432Z,49.54
2024-01-05T07:14:05.701Z,48.37
2024-01-05T07:16:31.976Z,48.09
2024-01-05T07:18:58.361Z,48.95
2024-01-05T07:21:24.701Z,47.64
2024-01-05T07:23:50.988Z,48.25
2024-01-05T07:26:17.262Z,48.83
2024-01-05T07:28:43.560Z,47.56
2024-01-05T07:31:09.984Z,47.01
2024-01-05T07:33:36.393Z,46.70
2024-01-05T07:36:02.771Z,46.50
2024-01-05T07:38:29.111Z,46.44
2024-01-05T07:40:55.372Z,45.06
2024-01-05T07:43:21.628Z,44.92
2024-01-05T07:45:48.503Z,42.44
2024-01-05T07:48:15.964Z,41.25
2024-01-05T07:50:42.308Z,40.70
2024-01-05T07:53:08.635Z,40.32
2024-01-05T07:55:34.901Z,42.95
2024-01-05T07:58:01.176Z,45.04
2024-01-05T08:00:27.594Z,45.09
2024-01-05T08:02:54.001Z,45.59
2024-01-05T08:05:21.163Z,45.88
2024-01-05T08:07:47.439Z,46.05
2024-01-05T08:10:13.716Z,46.85
2024-01-05T08:12:40.039Z,46.54
2024-01-05T08:15:06.436Z,44.19
2024-01-05T08:17:32.771Z,46.30
2024-01-05T08:19:59.125Z,46.65
2024-01-05T08:22:25.444Z,47.88
2024-01-05T08:24:51.704Z,48.81
2024-01-05T08:27:17.997Z,48.07
2024-01-05T08:29:44.302Z,46.85
2024-01-05T08:32:10.641Z,45.79
2024-01-05T08:34:37.076Z,45.60
2024-01-05T08:37:03.394Z,47.31
2024-01-05T08:39:29.766Z,48.15
2024-01-05T08:41:56.124Z,48.36
2024-01-05T08:44:22.413Z,50.07
2024-01-05T08:46:48.725Z,48.48
2024-01-05T08:49:15.091Z,46.14
2024-01-05T08:51:41.403Z,46.92
2024-01-05T08:54:07.757Z,47.73
2024-01-05T08:56:34.074Z,47.53
2024-01-05T08:59:00.345Z,48.43
2024-01-05T09:01:26.697Z,48.57
2024-01-05T09:03:53.093Z,46.22
2024-01-05T09:06:19.475Z,46.47
2024-01-05T09:08:45.823Z,46.07
2024-01-05T09:11:12.105Z,45.87
2024-01-05T09:13:39.430Z,45.14
2024-01-05T09:16:05.923Z,46.15
2024-01-05T09:18:32.321Z,46.95
2024-01-05T09:20:58.709Z,46.82
2024-01-05T09:23:25.014Z,48.52
2024-01-05T09:25:51.289Z,46.96
2024-01-05T09:28:17.594Z,46.37
2024-01-05T09:30:44.057Z,46.49
2024-01-05T09:33:10.638Z,45.82
2024-01-05T09:35:36.947Z,45.20
2024-01-05T09:38:03.212Z,44.71
2024-01-05T09:40:29.576Z,43.91
2024-01-05T09:42:55.873Z,45.62
2024-01-05T09:45:22.172Z,46.97
2024-01-05T09:47:48.574Z,47.01
2024-01-05T09:50:15.074Z,47.70
2024-01-05T09:52:41.437Z,46.43
2024-01-05T09:55:07.732Z,50.32
2024-01-05T09:57:34.056Z,54.32
2024-01-05T10:00:00.666Z,57.18
2024-01-05T10:02:27.041Z,61.44
2024-01-05T10:04:53.322Z,58.68
2024-01-05T10:07:19.608Z,58.77
2024-01-05T10:09:45.937Z,58.71
2024-01-05T10:12:12.271Z,59.09
2024-01-05T10:14:38.564Z,62.16
2024-01-05T10:17:04.849Z,64.07
2024-01-05T10:19:31.198Z,64.38
2024-01-05T10:21:57.598Z,64.36
2024-01-05T10:24:24.726Z,64.73
2024-01-05T10:26:51.371Z,64.00
2024-01-05T10:29:17.647Z,62.48
2024-01-05T10:31:44.018Z,62.20
2024-01-05T10:34:10.409Z,60.57
2024-01-05T10:36:37.040Z,59.20
2024-01-05T10:39:03.529Z,58.89
2024-01-05T10:41:29.822Z,61.18
2024-01-05T10:43:56.141Z,60.55
2024-01-05T10:46:22.522Z,59.22
2024-01-05T10:48:48.980Z,60.04
2024-01-05T10:51:15.493Z,58.95
2024-01-05T10:53:41.799Z,59.79
2024-01-05T10:56:08.081Z,59.81
2024-01-05T10:58:34.362Z,58.62
2024-01-05T11:01:00.823Z,59.45
2024-01-05T11:03:27.261Z,61.88
2024-01-05T11:05:53.620Z,60.48
2024-01-05T11:08:19.913Z,61.32
2024-01-05T11:10:46.180Z,61.18
2024-01-05T11:13:12.444Z,60.95
2024-01-05T11:15:38.888Z,61.08
2024-01-05T11:18:05.375Z,61.30
2024-01-05T11:20:31.732Z,61.23
2024-01-05T11:22:58.014Z,62.39
2024-01-05T11:25:24.286Z,63.12
2024-01-05T11:27:50.616Z,65.09
2024-01-05T11:30:17.008Z,64.30
2024-01-05T11:32:43.585Z,65.59
2024-01-05T11:35:10.122Z,67.08
2024-01-05T11:37:36.410Z,65.32
2024-01-05T11:40:02.688Z,63.25
2024-01-05T11:42:29.106Z,63.17
2024-01-05T11:44:55.441Z,63.50
2024-01-05T11:47:21.761Z,63.34
2024-01-05T11:49:48.248Z,62.91
2024-01-05T11:52:14.569Z,62.50
2024-01-05T11:54:40.942Z,61.46
2024-01-05T11:57:07.220Z,61.57
2024-01-05T11:59:33.545Z,62.55
2024-01-05T12:01:59.817Z,62.71
2024-01-05T12:04:26.222Z,63.11
2024-01-05T12:06:52.599Z,63.23
2024-01-05T12:09:18.942Z,62.94
2024-01-05T12:11:45.246Z,64.72
2024-01-05T12:14:11.523Z,64.70
2024-01-05T12:16:37.797Z,65.43
2024-01-05T12:19:04.461Z,63.59
2024-01-05T12:21:30.975Z,63.28
2024-01-05T12:23:57.898Z,62.85
2024-01-05T12:26:24.609Z,62.74
2024-01-05T12:28:51.047Z,62.07
2024-01-05T12:31:17.603Z,63.14
2024-01-05T12:33:44.130Z,63.81
2024-01-05T12:36:11.313Z,64.27
2024-01-05T12:38:37.925Z,64.30
2024-01-05T12:41:04.216Z,63.49
2024-01-05T12:43:30.506Z,62.42
2024-01-05T12:45:56.854Z,61.47
2024-01-05T12:48:23.231Z,62.50
2024-01-05T12:50:49.571Z,64.28
2024-01-05T12:53:15.905Z,65.11
2024-01-05T12:55:42.218Z,64.94
2024-01-05T12:58:08.482Z,64.08
2024-01-05T13:00:34.815Z,65.07
2024-01-05T13:03:01.157Z,65.60
2024-01-05T13:05:27.443Z,67.12
2024-01-05T13:07:53.746Z,65.85
2024-01-05T13:10:20.028Z,64.30
2024-01-05T13:12:46.386Z,65.21
2024-01-05T13:15:12.788Z,65.45
2024-01-05T13:17:39.101Z,65.49
2024-01-05T13:20:05.438Z,64.15
2024-01-05T13:22:34.760Z,63.66
2024-01-05T13:25:02.009Z,63.77
2024-01-05T13:27:28.374Z,63.65
2024-01-05T13:29:54.695Z,63.62
2024-01-05T13:32:21.073Z,65.34
2024-01-05T13:34:47.484Z,65.15
2024-01-05T13:37:13.864Z,64.53
2024-01-05T13:39:40.240Z,65.76
2024-01-05T13:42:06.718Z,65.89
2024-01-05T13:44:33.055Z,67.21
2024-01-05T13:46:59.323Z,66.58
2024-01-05T13:49:27.218Z,67.03
2024-01-05T13:51:53.690Z,65.56
2024-01-05T13:54:19.959Z,64.81
2024-01-05T13:56:46.267Z,65.63
2024-01-05T13:59:12.533Z,66.23
2024-01-05T14:01:41.201Z,67.32
2024-01-05T14:04:07.705Z,67.36
2024-01-05T14:06:34.027Z,68.16
2024-01-05T14:09:00.363Z,68.10
2024-01-05T14:11:26.662Z,68.54
2024-01-05T14:13:52.948Z,67.97
2024-01-05T14:16:19.237Z,67.84
2024-01-05T14:18:45.617Z,67.60
2024-01-05T14:21:11.984Z,68.13
2024-01-05T14:23:38.466Z,67.75
2024-01-05T14:26:04.792Z,66.62
2024-01-05T14:28:31.065Z,67.96
2024-01-05T14:30:57.405Z,67.97
2024-01-05T14:33:23.858Z,69.35
2024-01-05T14:35:50.207Z,69.57
2024-01-05T14:38:16.491Z,69.75
2024-01-05T14:40:42.757Z,69.60
2024-01-05T14:43:09.092Z,69.06
2024-01-05T14:45:35.366Z,69.63
2024-01-05T14:48:02.024Z,68.30
2024-01-05T14:50:28.589Z,68.31
2024-01-05T14:53:03.627Z,66.74
2024-01-05T14:55:34.571Z,65.81
2024-01-05T14:58:00.847Z,65.88
2024-01-05T15:00:27.155Z,65.76
2024-01-05T15:02:53.460Z,64.80
2024-01-05T15:05:19.750Z,64.63
2024-01-05T15:07:46.027Z,65.61
2024-01-05T15:10:12.302Z,65.11
2024-01-05T15:12:38.619Z,65.01
2024-01-05T15:15:07.291Z,64.80
2024-01-05T15:17:34.429Z,65.03
2024-01-05T15:20:00.966Z,64.91
2024-01-05T15:22:27.345Z,64.46
2024-01-05T15:24:53.656Z,65.23
2024-01-05T15:27:20.975Z,64.05
2024-01-05T15:29:47.236Z,63.57
2024-01-05T15:32:13.516Z,63.31
2024-01-05T15:34:39.875Z,63.96
2024-01-05T15:37:06.251Z,64.51
2024-01-05T15:39:32.557Z,65.56
2024-01-05T15:41:58.845Z,65.55
2024-01-05T15:44:26.844Z,65.22
2024-01-05T15:46:53.173Z,64.87
2024-01-05T15:49:19.521Z,64.96
2024-01-05T15:51:45.930Z,65.38
2024-01-05T15:54:12.414Z,64.90
2024-01-05T15:56:38.744Z,65.02
2024-01-05T15:59:05.023Z,64.75
2024-01-05T16:01:31.348Z,64.35
2024-01-05T16:03:57.835Z,64.85
2024-01-05T16:06:24.182Z,66.22
2024-01-05T16:08:50.464Z,66.22
2024-01-05T16:11:16.739Z,66.31
2024-01-05T16:13:43.006Z,66.60
2024-01-05T16:16:09.269Z,66.45
2024-01-05T16:18:35.673Z,66.21
2024-01-05T16:21:03.186Z,66.02
2024-01-05T16:23:29.474Z,65.68
2024-01-05T16:25:55.771Z,65.10
2024-01-05T16:28:22.049Z,65.23
2024-01-05T16:30:48.395Z,64.81
2024-01-05T16:33:14.889Z,64.73
2024-01-05T16:35:41.326Z,66.81
2024-01-05T16:38:07.596Z,65.81
2024-01-05T16:40:33.907Z,65.52
2024-01-05T16:43:00.186Z,65.41
2024-01-05T16:45:26.483Z,65.12
2024-01-05T16:47:52.852Z,65.08
2024-01-05T16:50:19.191Z,65.31
2024-01-05T16:52:45.465Z,65.11
2024-01-05T16:55:11.739Z,64.91
2024-01-05T16:57:38.153Z,64.87
2024-01-05T17:00:04.532Z,64.79
2024-01-05T17:02:30.866Z,64.68
2024-01-05T17:04:57.162Z,64.96
2024-01-05T17:07:23.453Z,65.84
2024-01-05T17:09:49.815Z,65.85
2024-01-05T17:12:16.098Z,66.46
2024-01-05T17:14:42.406Z,65.82
2024-01-05T17:17:08.686Z,66.45
2024-01-05T17:19:35.129Z,66.04
2024-01-05T17:22:01.540Z,65.63
2024-01-05T17:24:27.841Z,65.60
2024-01-05T17:26:54.145Z,65.14
2024-01-05T17:29:20.497Z,64.68
2024-01-05T17:31:46.855Z,64.78
2024-01-05T17:34:13.240Z,65.04
2024-01-05T17:36:39.605Z,64.91
2024-01-05T17:39:05.902Z,64.58
2024-01-05T17:41:32.196Z,64.69
2024-01-05T17:43:58.521Z,65.96
2024-01-05T17:46:24.798Z,66.98
2024-01-05T17:48:51.171Z,68.28
2024-01-05T17:51:17.531Z,67.11
2024-01-05T17:53:43.831Z,65.77
2024-01-05T17:56:10.135Z,65.88
2024-01-05T17:58:36.423Z,65.64
2024-01-05T18:01:04.204Z,65.38
2024-01-05T18:03:32.066Z,65.16
2024-01-05T18:05:58.404Z,65.24
2024-01-05T18:08:24.701Z,65.09
2024-01-05T18:10:50.971Z,64.95
2024-01-05T18:13:17.258Z,64.84
2024-01-05T18:15:43.542Z,64.76
2024-01-05T18:18:10.035Z,64.85
2024-01-05T18:20:36.433Z,64.82
2024-01-05T18:23:02.717Z,64.86
2024-01-05T18:25:31.232Z,64.95
2024-01-05T18:27:59.004Z,64.40
2024-01-05T18:30:26.374Z,64.65
2024-01-05T18:32:52.764Z,64.60
2024-01-05T18:35:19.097Z,64.77
2024-01-05T18:37:45.394Z,64.85
2024-01-05T18:40:11.693Z,64.86
2024-01-05T18:42:38.012Z,64.59
2024-01-05T18:45:04.408Z,64.35
2024-01-05T18:47:30.727Z,64.34
2024-01-05T18:49:57.157Z,64.36
2024-01-05T18:52:23.532Z,64.95
2024-01-05T18:54:49.944Z,64.51
2024-01-05T18:57:16.293Z,64.56
2024-01-05T18:59:42.611Z,64.48
2024-01-05T19:02:08.888Z,64.73
2024-01-05T19:04:35.298Z,65.17
2024-01-05T19:07:01.732Z,67.48
2024-01-05T19:09:28.090Z,66.23
2024-01-05T19:11:54.387Z,65.59
2024-01-05T19:14:20.721Z,65.10
2024-01-05T19:16:47.002Z,64.97
2024-01-05T19:19:15.702Z,65.67
2024-01-05T19:21:49.587Z,64.63
2024-01-05T19:24:22.006Z,64.31
2024-01-05T19:26:48.296Z,64.30
2024-01-05T19:29:14.595Z,64.82
2024-01-05T19:31:40.933Z,65.05
2024-01-05T19:34:07.431Z,64.92
2024-01-05T19:36:33.777Z,64.73
2024-01-05T19:39:00.057Z,64.78
2024-01-05T19:41:26.376Z,64.58
2024-01-05T19:43:52.674Z,65.85
2024-01-05T19:46:18.956Z,66.97
2024-01-05T19:48:45.801Z,66.68
2024-01-05T19:51:12.221Z,65.89
2024-01-05T19:53:38.533Z,65.47
2024-01-05T19:56:04.814Z,65.20
2024-01-05T19:58:31.088Z,65.04
2024-01-05T20:00:57.438Z,64.79
2024-01-05T20:03:24.203Z,64.63
2024-01-05T20:05:50.597Z,65.39
2024-01-05T20:08:16.886Z,65.20
2024-01-05T20:10:43.348Z,65.09
2024-01-05T20:13:09.702Z,64.77
2024-01-05T20:15:36.020Z,64.76
2024-01-05T20:18:02.411Z,64.93
2024-01-05T20:20:28.797Z,64.57
2024-01-05T20:22:55.062Z,65.39
2024-01-05T20:25:22.206Z,65.63
2024-01-05T20:27:48.946Z,66.08
2024-01-05T20:30:15.500Z,65.35
2024-01-05T20:32:42.026Z,64.97
2024-01-05T20:35:08.365Z,64.79
2024-01-05T20:37:34.663Z,65.43
2024-01-05T20:40:00.922Z,65.27
2024-01-05T20:42:27.286Z,66.48
2024-01-05T20:44:53.569Z,65.84
2024-01-05T20:47:19.840Z,65.64
2024-01-05T20:49:46.270Z,65.57
2024-01-05T20:52:12.614Z,65.49
2024-01-05T20:54:38.905Z,65.49
2024-01-05T20:57:05.276Z,65.91
2024-01-05T20:59:31.594Z,65.45
2024-01-05T21:01:57.861Z,65.54
2024-01-05T21:04:24.193Z,66.76
2024-01-05T21:06:50.570Z,66.06
2024-01-05T21:09:16.942Z,65.72
2024-01-05T21:11:43.276Z,65.53
2024-01-05T21:14:09.550Z,67.18
2024-01-05T21:16:35.826Z,68.53
2024-01-05T21:19:02.209Z,67.34
2024-01-05T21:21:28.725Z,66.88
2024-01-05T21:23:55.108Z,66.54
2024-01-05T21:26:21.377Z,65.91
2024-01-05T21:28:47.652Z,65.59
2024-01-05T21:31:14.044Z,65.51
2024-01-05T21:33:40.473Z,65.58
2024-01-05T21:36:06.804Z,65.36
2024-01-05T21:38:33.129Z,65.74
2024-01-05T21:40:59.416Z,65.68
2024-01-05T21:43:25.771Z,65.48
2024-01-05T21:45:52.129Z,65.28
2024-01-05T21:48:18.615Z,65.13
2024-01-05T21:50:45.012Z,64.90
2024-01-05T21:53:11.338Z,64.69
2024-01-05T21:55:37.615Z,64.92
2024-01-05T21:58:03.941Z,64.98
2024-01-05T22:00:30.312Z,65.21
2024-01-05T22:02:56.699Z,65.21
2024-01-05T22:05:23.070Z,65.52
2024-01-05T22:07:49.366Z,65.58
2024-01-05T22:10:15.701Z,65.74
2024-01-05T22:12:42.023Z,65.48
2024-01-05T22:15:08.377Z,65.03
2024-01-05T22:17:34.801Z,65.34
2024-01-05T22:20:01.281Z,65.00
2024-01-05T22:22:27.638Z,64.70
2024-01-05T22:24:53.982Z,66.01
2024-01-05T22:27:20.317Z,67.02
2024-01-05T22:29:46.661Z,68.13
2024-01-05T22:32:12.952Z,67.88
2024-01-05T22:34:39.564Z,67.23
2024-01-05T22:37:05.899Z,67.54
2024-01-05T22:39:32.208Z,67.57
2024-01-05T22:41:58.485Z,67.20
2024-01-05T22:44:24.778Z,66.40
2024-01-05T22:46:51.079Z,65.80
2024-01-05T22:49:17.513Z,65.80
2024-01-05T22:51:43.991Z,65.80
2024-01-05T22:54:10.285Z,67.14
2024-01-05T22:56:36.595Z,66.70
2024-01-05T22:59:02.871Z,66.84
2024-01-05T23:01:29.173Z,66.61
2024-01-05T23:03:55.546Z,66.16
2024-01-05T23:06:22.023Z,65.74
2024-01-05T23:08:50.257Z,65.87
2024-01-05T23:11:16.540Z,66.13
2024-01-05T23:13:42.828Z,66.27
2024-01-05T23:16:09.305Z,66.17
2024-01-05T23:18:35.877Z,65.91
2024-01-05T23:21:02.225Z,65.76
2024-01-05T23:23:28.499Z,66.52
2024-01-05T23:25:54.775Z,66.00
2024-01-05T23:28:21.066Z,65.99
2024-01-05T23:30:47.429Z,65.77
2024-01-05T23:33:13.892Z,65.74
2024-01-05T23:35:40.272Z,65.57
2024-01-05T23:38:06.552Z,65.71
2024-01-05T23:40:32.859Z,65.68
2024-01-05T23:42:59.142Z,65.45
2024-01-05T23:45:25.445Z,65.46
2024-01-05T23:47:51.841Z,65.40
2024-01-05T23:50:18.171Z,65.46
2024-01-05T23:52:45.085Z,65.54
2024-01-05T23:55:11.346Z,65.44
2024-01-05T23:57:37.638Z,66.15
